Aérodrome :
LOGIN :

S'inscrire | Disclaimer

   EN    FR    IT 

 










Légende :    VFR   VFR Marginal   IFR   IFR Intensif   IFR Très Intensif
Visi : 
Plafond : 
>= 8 km
>= 3000ft
5 à 8 km
1000 à 3000 ft
1500m à 5 km
500 à 1000 ft
800 à 1500m
200 à 500 ft
< 800m
< 200 ft
Symboles :   Orages  Brouillard  Fortes neiges  Fortes précipitations  Vent > 20 kt
SIGMETs :   Divers  Orages  Givrage  Turbulence  Onde Orograph.  Cendres Volcan.







- Altitude de l'aérodrome : 1017 ft
- Voir les cartes d'approche


LFSL - Brive Souillac

DERNIER METAR :
  • 260900Z AUTO 32006KT 300V360 9999 BKN022 12/06 Q1023 NOSIG

METARs EXPIRÉS :
  • 260830Z AUTO 33007KT 300V060 9999 BKN019 12/06 Q1023 NOSIG
  • 260800Z AUTO 32007KT 9999 SCT016 11/07 Q1023 NOSIG
  • 260730Z AUTO 30006KT 270V330 9999 SCT011 10/07 Q1023 NOSIG
  • 260700Z AUTO 32005KT 290V350 9999 BKN008 09/07 Q1023 TEMPO 3000 BR BECMG NSC
  • 260630Z AUTO 33007KT 9999 FEW014 08/07 Q1023 TEMPO 3000 BR BKN005

TAF TAF LFSL
Valide du 26 à 09h jusqu'au 26 à 18h UTC


260800Z 2609/2618 31007KT 9999 BKN009
BECMG 2609/2611 CAVOK
Pas de NOTAMs connus pour ce terrain.



MET'MAP, la Météo Aéronautique d'un coup d'oeil ! - Copyright ORBIFLY Décembre 2007 - Disclaimer

ORBIFLY MET'MAP TEAM :

Programmation & Développement : Alexandra Zaïnal
Conception & Développement : Baudouin d'Aumeries
Co-Programmation & Développement : Marc-Olivier Méhu
Soutien technique & logistique : Manuel Goepfert

Contact : metmap@orbifly.com




SOURCES & CREDITS :

   NOAA